KHON/HON METAR and TAF weather

Enter ICAO airport designator
Station Type Date Time Source
KHON METAR 2020/08/15 16:55 UTC NOAA

KHON 151655Z AUTO 26005KT 10SM CLR 28/14 A3004 RMK AO2 SLP168 T02780139


Station Type Date Time Source
KHON Decoded METAR 2020/08/15 16:55 UTC NOAA

HURON REGIONAL AIRPORT, SD, United States (KHON) 44-23N 098-14W 390M
Aug 15, 2020 - 12:55 PM EDT / 2020.08.15 1655 UTC
Wind: from the W (260 degrees) at 6 MPH (5 KT):0
Visibility: 10 mile(s):0
Sky conditions: clear
Temperature: 82.0 F (27.8 C)
Dew Point: 57.0 F (13.9 C)
Relative Humidity: 42%
Pressure (altimeter): 30.04 in. Hg (1017 hPa)
ob: KHON 151655Z AUTO 26005KT 10SM CLR 28/14 A3004 RMK AO2 SLP168 T02780139
cycle: 17

Station Type Date Time Source
KHON TAF 2020/08/15 18:24 UTC NOAA

TAF KHON 151722Z 1518/1618 28011KT P6SM FEW250
FM160000 VRB06KT P6SM FEW250
FM160500 14006KT P6SM FEW250
FM161500 30008KT P6SM FEW250

Example: see airport list